createdAt,value
2017-06-17T00:00:19.818Z,1014.24
2017-06-17T00:01:00.705Z,1014.25
2017-06-17T00:01:41.586Z,1014.22
2017-06-17T00:02:22.472Z,1014.27
2017-06-17T00:03:03.368Z,1014.28
2017-06-17T00:03:44.263Z,1014.21
2017-06-17T00:04:25.156Z,1014.19
2017-06-17T00:05:06.050Z,1014.25
2017-06-17T00:05:46.928Z,1014.22
2017-06-17T00:06:27.816Z,1014.25
2017-06-17T00:07:08.719Z,1014.23
2017-06-17T00:07:49.593Z,1014.25
2017-06-17T00:08:30.482Z,1014.21
2017-06-17T00:09:11.367Z,1014.2
2017-06-17T00:09:52.257Z,1014.26
2017-06-17T00:10:33.189Z,1014.25
2017-06-17T00:11:14.082Z,1014.25
2017-06-17T00:11:54.977Z,1014.33
2017-06-17T00:12:35.871Z,1014.18
2017-06-17T00:13:16.759Z,1014.25
2017-06-17T00:13:57.652Z,1014.21
2017-06-17T00:14:38.538Z,1014.3
2017-06-17T00:15:19.444Z,1014.31
2017-06-17T00:16:00.339Z,1014.26
2017-06-17T00:16:41.229Z,1014.22
2017-06-17T00:17:22.113Z,1014.33
2017-06-17T00:18:03.003Z,1014.25
2017-06-17T00:18:43.881Z,1014.28
2017-06-17T00:19:24.773Z,1014.3
2017-06-17T00:20:05.659Z,1014.29
2017-06-17T00:20:46.544Z,1014.24
2017-06-17T00:21:27.414Z,1014.18
2017-06-17T00:22:08.303Z,1014.28
2017-06-17T00:22:49.210Z,1014.22
2017-06-17T00:23:30.117Z,1014.28
2017-06-17T00:24:11.021Z,1014.3
2017-06-17T00:24:51.899Z,1014.29
2017-06-17T00:25:32.790Z,1014.26
2017-06-17T00:26:13.689Z,1014.27
2017-06-17T00:26:54.585Z,1014.3
2017-06-17T00:27:35.468Z,1014.25
2017-06-17T00:28:16.335Z,1014.23
2017-06-17T00:28:57.238Z,1014.31
2017-06-17T00:29:38.162Z,1014.34
2017-06-17T00:30:19.056Z,1014.17
2017-06-17T00:30:59.943Z,1014.23
2017-06-17T00:31:40.840Z,1014.25
2017-06-17T00:32:21.733Z,1014.27
2017-06-17T00:33:02.616Z,1014.27
2017-06-17T00:33:43.520Z,1014.27
2017-06-17T00:34:24.409Z,1014.37
2017-06-17T00:35:05.296Z,1014.27
2017-06-17T00:35:46.190Z,1014.24
2017-06-17T00:36:27.118Z,1014.31
2017-06-17T00:37:08.010Z,1014.33
2017-06-17T00:37:48.910Z,1014.3
2017-06-17T00:38:29.791Z,1014.31
2017-06-17T00:39:10.662Z,1014.34
2017-06-17T00:39:51.556Z,1014.27
2017-06-17T00:40:32.436Z,1014.3
2017-06-17T00:41:13.311Z,1014.3
2017-06-17T00:41:54.185Z,1014.35
2017-06-17T00:42:35.082Z,1014.39
2017-06-17T00:43:15.977Z,1014.28
2017-06-17T00:43:56.861Z,1014.32
2017-06-17T00:44:37.754Z,1014.37
2017-06-17T00:45:18.648Z,1014.38
2017-06-17T00:45:59.533Z,1014.34
2017-06-17T00:46:40.428Z,1014.32
2017-06-17T00:47:21.324Z,1014.4
2017-06-17T00:48:02.218Z,1014.24
2017-06-17T00:48:43.118Z,1014.32
2017-06-17T00:49:24.010Z,1014.36
2017-06-17T00:50:04.894Z,1014.34
2017-06-17T00:50:45.780Z,1014.4
2017-06-17T00:51:26.668Z,1014.39
2017-06-17T00:52:07.550Z,1014.33
2017-06-17T00:52:48.436Z,1014.38
2017-06-17T00:53:29.333Z,1014.44
2017-06-17T00:54:10.224Z,1014.41
2017-06-17T00:54:51.114Z,1014.35
2017-06-17T00:55:31.993Z,1014.39
2017-06-17T00:56:12.887Z,1014.33
2017-06-17T00:56:53.822Z,1014.42
2017-06-17T00:57:34.705Z,1014.37
2017-06-17T00:58:15.626Z,1014.34
2017-06-17T00:58:56.536Z,1014.37
2017-06-17T00:59:37.431Z,1014.38
2017-06-17T01:00:18.329Z,1014.32
2017-06-17T01:00:59.220Z,1014.31
2017-06-17T01:01:40.094Z,1014.38
2017-06-17T01:02:21.017Z,1014.34
2017-06-17T01:03:01.892Z,1014.27
2017-06-17T01:03:42.780Z,1014.34
2017-06-17T01:04:23.664Z,1014.29
2017-06-17T01:05:04.553Z,1014.26
2017-06-17T01:05:45.434Z,1014.32
2017-06-17T01:06:26.321Z,1014.31
2017-06-17T01:07:07.205Z,1014.26
2017-06-17T01:07:48.094Z,1014.38
2017-06-17T01:08:28.982Z,1014.27
2017-06-17T01:09:09.861Z,1014.34
2017-06-17T01:09:50.745Z,1014.31
2017-06-17T01:10:31.639Z,1014.29
2017-06-17T01:11:12.518Z,1014.31
2017-06-17T01:11:53.405Z,1014.32
2017-06-17T01:12:34.325Z,1014.32
2017-06-17T01:13:15.217Z,1014.3
2017-06-17T01:13:56.108Z,1014.34
2017-06-17T01:14:37.000Z,1014.37
2017-06-17T01:15:17.883Z,1014.33
2017-06-17T01:15:58.827Z,1014.29
2017-06-17T01:16:39.692Z,1014.32
2017-06-17T01:17:20.579Z,1014.37
2017-06-17T01:18:01.464Z,1014.35
2017-06-17T01:18:42.371Z,1014.36
2017-06-17T01:19:23.267Z,1014.37
2017-06-17T01:20:04.156Z,1014.38
2017-06-17T01:20:45.040Z,1014.42
2017-06-17T01:21:25.932Z,1014.34
2017-06-17T01:22:06.828Z,1014.4
2017-06-17T01:22:47.713Z,1014.42
2017-06-17T01:23:28.587Z,1014.46
2017-06-17T01:24:09.478Z,1014.5
2017-06-17T01:24:50.372Z,1014.51
2017-06-17T01:25:31.270Z,1014.43
2017-06-17T01:26:12.157Z,1014.4
2017-06-17T01:26:53.052Z,1014.45
2017-06-17T01:27:33.928Z,1014.38
2017-06-17T01:28:14.827Z,1014.4
2017-06-17T01:28:55.714Z,1014.41
2017-06-17T01:29:36.594Z,1014.43
2017-06-17T01:30:17.485Z,1014.39
2017-06-17T01:30:58.374Z,1014.36
2017-06-17T01:31:39.264Z,1014.39
2017-06-17T01:32:20.148Z,1014.41
2017-06-17T01:33:01.039Z,1014.38
2017-06-17T01:33:41.928Z,1014.42
2017-06-17T01:34:22.812Z,1014.28
2017-06-17T01:35:03.712Z,1014.44
2017-06-17T01:35:44.593Z,1014.4
2017-06-17T01:36:25.477Z,1014.42
2017-06-17T01:37:06.357Z,1014.41
2017-06-17T01:37:47.246Z,1014.46
2017-06-17T01:38:28.144Z,1014.48
2017-06-17T01:39:09.028Z,1014.39
2017-06-17T01:39:49.880Z,1014.49
2017-06-17T01:40:30.752Z,1014.43
2017-06-17T01:41:11.643Z,1014.49
2017-06-17T01:41:52.547Z,1014.4
2017-06-17T01:42:33.410Z,1014.41
2017-06-17T01:43:14.292Z,1014.47
2017-06-17T01:43:55.177Z,1014.43
2017-06-17T01:44:36.078Z,1014.41
2017-06-17T01:45:16.955Z,1014.48
2017-06-17T01:45:57.850Z,1014.46
2017-06-17T01:46:38.746Z,1014.49
2017-06-17T01:47:19.635Z,1014.43
2017-06-17T01:48:00.530Z,1014.48
2017-06-17T01:48:41.429Z,1014.41
2017-06-17T01:49:22.311Z,1014.39
2017-06-17T01:50:03.200Z,1014.52
2017-06-17T01:50:44.095Z,1014.43
2017-06-17T01:51:24.979Z,1014.4
2017-06-17T01:52:05.909Z,1014.41
2017-06-17T01:52:46.858Z,1014.37
2017-06-17T01:53:27.748Z,1014.36
2017-06-17T01:54:08.640Z,1014.32
2017-06-17T01:54:49.536Z,1014.43
2017-06-17T01:55:30.456Z,1014.46
2017-06-17T01:56:11.351Z,1014.48
2017-06-17T01:56:52.250Z,1014.4
2017-06-17T01:57:33.116Z,1014.42
2017-06-17T01:58:14.002Z,1014.37
2017-06-17T01:58:54.883Z,1014.44
2017-06-17T01:59:35.777Z,1014.45
2017-06-17T02:01:34.552Z,1014.45
2017-06-17T02:02:15.438Z,1014.4
2017-06-17T02:02:56.325Z,1014.44
2017-06-17T02:03:37.219Z,1014.42
2017-06-17T02:04:18.098Z,1014.49
2017-06-17T02:04:58.984Z,1014.41
2017-06-17T02:05:39.915Z,1014.42
2017-06-17T02:06:20.802Z,1014.46
2017-06-17T02:07:01.688Z,1014.5
2017-06-17T02:07:42.585Z,1014.4
2017-06-17T02:08:23.466Z,1014.41
2017-06-17T02:09:04.355Z,1014.43
2017-06-17T02:09:45.265Z,1014.38
2017-06-17T02:10:26.142Z,1014.41
2017-06-17T02:11:07.006Z,1014.36
2017-06-17T02:11:47.907Z,1014.37
2017-06-17T02:12:28.797Z,1014.34
2017-06-17T02:13:09.679Z,1014.37
2017-06-17T02:13:50.579Z,1014.4
2017-06-17T02:14:31.477Z,1014.42
2017-06-17T02:15:12.382Z,1014.41
2017-06-17T02:15:53.273Z,1014.43
2017-06-17T02:16:34.164Z,1014.35
2017-06-17T02:17:15.049Z,1014.41
2017-06-17T02:17:55.932Z,1014.4
2017-06-17T02:18:36.828Z,1014.4
2017-06-17T02:19:17.724Z,1014.45
2017-06-17T02:19:58.607Z,1014.44
2017-06-17T02:20:39.530Z,1014.44
2017-06-17T02:21:20.415Z,1014.33
2017-06-17T02:22:01.315Z,1014.39
2017-06-17T02:22:42.206Z,1014.37
2017-06-17T02:23:23.077Z,1014.4
2017-06-17T02:24:03.954Z,1014.38
2017-06-17T02:24:44.851Z,1014.41
2017-06-17T02:25:25.721Z,1014.43
2017-06-17T02:26:06.603Z,1014.53
2017-06-17T02:26:47.478Z,1014.43
2017-06-17T02:27:28.390Z,1014.44
2017-06-17T02:28:09.246Z,1014.43
2017-06-17T02:28:50.156Z,1014.39
2017-06-17T02:29:31.059Z,1014.49
2017-06-17T02:30:11.938Z,1014.44
2017-06-17T02:30:52.808Z,1014.45
2017-06-17T02:31:33.706Z,1014.52
2017-06-17T02:32:14.595Z,1014.54
2017-06-17T02:32:55.484Z,1014.5
2017-06-17T02:33:36.359Z,1014.53
2017-06-17T02:34:17.240Z,1014.57
2017-06-17T02:34:58.147Z,1014.51
2017-06-17T02:35:39.075Z,1014.65
2017-06-17T02:36:19.962Z,1014.59
2017-06-17T02:37:00.840Z,1014.57
2017-06-17T02:37:41.718Z,1014.62
2017-06-17T02:38:22.606Z,1014.56
2017-06-17T02:39:03.498Z,1014.68
2017-06-17T02:39:44.384Z,1014.6
2017-06-17T02:40:25.283Z,1014.65
2017-06-17T02:41:06.181Z,1014.66
2017-06-17T02:41:47.065Z,1014.66
2017-06-17T02:42:27.939Z,1014.68
2017-06-17T02:43:08.830Z,1014.63
2017-06-17T02:43:49.738Z,1014.63
2017-06-17T02:44:30.592Z,1014.61
2017-06-17T02:45:11.472Z,1014.67
2017-06-17T02:45:52.371Z,1014.59
2017-06-17T02:46:33.240Z,1014.66
2017-06-17T02:47:14.116Z,1014.66
2017-06-17T02:47:55.000Z,1014.87
2017-06-17T02:48:35.877Z,1014.71
2017-06-17T02:49:16.770Z,1014.77
2017-06-17T02:49:57.658Z,1014.63
2017-06-17T02:50:38.546Z,1014.72
2017-06-17T02:51:19.454Z,1014.7
2017-06-17T02:52:00.345Z,1014.7
2017-06-17T02:52:41.300Z,1014.72
2017-06-17T02:53:22.225Z,1014.66
2017-06-17T02:54:03.121Z,1014.68
2017-06-17T02:54:43.979Z,1014.73
2017-06-17T02:55:24.859Z,1014.74
2017-06-17T02:56:05.743Z,1014.71
2017-06-17T02:56:46.644Z,1014.85
2017-06-17T02:57:27.518Z,1014.75
2017-06-17T02:58:08.409Z,1014.61
2017-06-17T02:58:49.287Z,1014.61
2017-06-17T02:59:30.178Z,1014.65
2017-06-17T03:00:11.071Z,1014.74
2017-06-17T03:00:51.962Z,1014.73
2017-06-17T03:01:32.854Z,1014.75
2017-06-17T03:02:13.730Z,1014.75
2017-06-17T03:02:54.653Z,1014.84
2017-06-17T03:03:35.609Z,1014.74
2017-06-17T03:04:16.448Z,1014.76
2017-06-17T03:04:57.335Z,1014.8
2017-06-17T03:05:38.220Z,1014.75
2017-06-17T03:06:19.119Z,1014.78
2017-06-17T03:06:59.982Z,1014.76
2017-06-17T03:07:40.882Z,1014.79
2017-06-17T03:08:21.775Z,1014.85
2017-06-17T03:09:02.667Z,1014.88
2017-06-17T03:09:43.565Z,1014.82
2017-06-17T03:10:24.439Z,1014.87
2017-06-17T03:11:05.341Z,1014.91
2017-06-17T03:11:46.218Z,1014.91
2017-06-17T03:12:27.114Z,1014.96
2017-06-17T03:13:08.001Z,1014.91
2017-06-17T03:13:48.886Z,1014.9
2017-06-17T03:14:29.807Z,1014.91
2017-06-17T03:15:10.678Z,1014.91
2017-06-17T03:15:51.555Z,1014.99
2017-06-17T03:16:32.448Z,1014.98
2017-06-17T03:17:13.332Z,1015.07
2017-06-17T03:17:54.229Z,1015.03
2017-06-17T03:18:35.107Z,1015.02
2017-06-17T03:19:16.004Z,1015.07
2017-06-17T03:19:56.913Z,1015.02
2017-06-17T03:20:37.790Z,1015.04
2017-06-17T03:21:18.685Z,1015.02
2017-06-17T03:21:59.578Z,1015.08
2017-06-17T03:22:40.485Z,1015.02
2017-06-17T03:23:21.375Z,1015.04
2017-06-17T03:24:02.263Z,1015.1
2017-06-17T03:24:43.165Z,1015.08
2017-06-17T03:25:24.053Z,1014.98
2017-06-17T03:26:04.945Z,1015.06
2017-06-17T03:26:45.825Z,1014.97
2017-06-17T03:27:26.714Z,1015.06
2017-06-17T03:28:07.603Z,1015.03
2017-06-17T03:28:48.493Z,1015.02
2017-06-17T03:29:29.399Z,1014.98
2017-06-17T03:30:10.269Z,1015.06
2017-06-17T03:30:51.209Z,1015.01
2017-06-17T03:31:32.096Z,1015.08
2017-06-17T03:32:12.973Z,1015.02
2017-06-17T03:32:53.862Z,1015.02
2017-06-17T03:33:34.738Z,1015
2017-06-17T03:34:15.634Z,1015.01
2017-06-17T03:34:56.511Z,1015.08
2017-06-17T03:35:37.409Z,1015.05
2017-06-17T03:36:18.306Z,1015.05
2017-06-17T03:36:59.203Z,1015.06
2017-06-17T03:37:40.091Z,1015.07
2017-06-17T03:38:20.971Z,1015.05
2017-06-17T03:39:01.862Z,1015.05
2017-06-17T03:39:42.756Z,1015.03
2017-06-17T03:40:23.638Z,1014.97
2017-06-17T03:41:04.510Z,1014.96
2017-06-17T03:41:45.393Z,1015
2017-06-17T03:42:26.376Z,1015.01
2017-06-17T03:43:07.265Z,1015.01
2017-06-17T03:43:48.151Z,1015.02
2017-06-17T03:44:29.038Z,1015.02
2017-06-17T03:45:09.930Z,1014.95
2017-06-17T03:45:50.823Z,1014.97
2017-06-17T03:46:31.714Z,1014.98
2017-06-17T03:47:12.606Z,1015.03
2017-06-17T03:47:53.480Z,1014.99
2017-06-17T03:48:34.358Z,1015.04
2017-06-17T03:49:15.219Z,1014.99
2017-06-17T03:49:56.105Z,1015.01
2017-06-17T03:50:36.992Z,1015.11
2017-06-17T03:51:17.909Z,1014.99
2017-06-17T03:51:58.791Z,1015.06
2017-06-17T03:52:39.670Z,1015.04
2017-06-17T03:53:20.566Z,1015.03
2017-06-17T03:54:01.455Z,1015.08
2017-06-17T03:54:42.334Z,1015.04
2017-06-17T03:55:23.219Z,1015
2017-06-17T03:56:04.111Z,1015.04
2017-06-17T03:56:44.991Z,1015.05
2017-06-17T03:57:25.888Z,1015.09
2017-06-17T03:58:06.767Z,1015.13
2017-06-17T03:58:47.656Z,1015.08
2017-06-17T03:59:28.562Z,1015.1
2017-06-17T04:00:09.445Z,1015.07
2017-06-17T04:00:50.334Z,1015.05
2017-06-17T04:01:31.217Z,1015.1
2017-06-17T04:02:12.187Z,1015.11
2017-06-17T04:02:53.074Z,1015.06
2017-06-17T04:03:33.979Z,1015.08
2017-06-17T04:04:14.880Z,1015.16
2017-06-17T04:04:55.770Z,1015.07
2017-06-17T04:05:36.653Z,1015.1
2017-06-17T04:06:17.565Z,1015.07
2017-06-17T04:06:58.453Z,1015.08
2017-06-17T04:07:39.328Z,1015.1
2017-06-17T04:08:20.207Z,1015.06
2017-06-17T04:09:01.098Z,1015.11
2017-06-17T04:09:41.981Z,1015.14
2017-06-17T04:10:22.878Z,1015.13
2017-06-17T04:11:03.766Z,1015.16
2017-06-17T04:11:44.651Z,1015.16
2017-06-17T04:12:25.528Z,1015.18
2017-06-17T04:13:06.437Z,1015.11
2017-06-17T04:13:47.311Z,1015.16
2017-06-17T04:14:28.198Z,1015.15
2017-06-17T04:15:09.081Z,1015.18
2017-06-17T04:15:49.972Z,1015.17
2017-06-17T04:16:30.854Z,1015.23
2017-06-17T04:17:11.738Z,1015.21
2017-06-17T04:17:52.621Z,1015.15
2017-06-17T04:18:33.511Z,1015.24
2017-06-17T04:19:14.403Z,1015.19
2017-06-17T04:19:55.272Z,1015.19
2017-06-17T04:20:36.175Z,1015.2
2017-06-17T04:21:17.067Z,1015.19
2017-06-17T04:21:57.959Z,1015.16
2017-06-17T04:22:38.864Z,1015.2
2017-06-17T04:23:19.743Z,1015.19
2017-06-17T04:24:00.637Z,1015.19
2017-06-17T04:24:41.523Z,1015.16
2017-06-17T04:25:22.417Z,1015.17
2017-06-17T04:26:03.288Z,1015.15
2017-06-17T04:26:44.166Z,1015.15
2017-06-17T04:27:25.081Z,1015.17
2017-06-17T04:28:05.963Z,1015.19
2017-06-17T04:28:46.857Z,1015.18
2017-06-17T04:29:27.804Z,1015.23
2017-06-17T04:30:08.696Z,1015.18
2017-06-17T04:30:49.590Z,1015.12
2017-06-17T04:31:30.476Z,1015.14
2017-06-17T04:32:11.375Z,1015.2
2017-06-17T04:32:52.265Z,1015.23
2017-06-17T04:33:33.157Z,1015.2
2017-06-17T04:34:14.053Z,1015.24
2017-06-17T04:34:54.938Z,1015.24
2017-06-17T04:35:35.801Z,1015.18
2017-06-17T04:36:16.691Z,1015.23
2017-06-17T04:36:57.563Z,1015.24
2017-06-17T04:37:38.460Z,1015.23
2017-06-17T04:38:19.350Z,1015.24
2017-06-17T04:39:00.241Z,1015.27
2017-06-17T04:39:41.120Z,1015.21
2017-06-17T04:40:22.024Z,1015.22
2017-06-17T04:41:02.918Z,1015.21
2017-06-17T04:41:43.814Z,1015.29
2017-06-17T04:42:24.699Z,1015.26
2017-06-17T04:43:05.578Z,1015.23
2017-06-17T04:43:46.487Z,1015.24
2017-06-17T04:44:27.360Z,1015.21
2017-06-17T04:45:08.244Z,1015.23
2017-06-17T04:45:49.139Z,1015.21
2017-06-17T04:46:30.030Z,1015.31
2017-06-17T04:47:10.929Z,1015.19
2017-06-17T04:47:51.827Z,1015.24
2017-06-17T04:48:32.728Z,1015.28
2017-06-17T04:49:13.619Z,1015.25
2017-06-17T04:49:54.520Z,1015.3
2017-06-17T04:50:35.423Z,1015.28
2017-06-17T04:51:16.313Z,1015.28
2017-06-17T04:51:57.201Z,1015.3
2017-06-17T04:52:38.074Z,1015.28
2017-06-17T04:53:19.030Z,1015.35
2017-06-17T04:53:59.908Z,1015.24
2017-06-17T04:54:40.801Z,1015.27
2017-06-17T04:55:21.691Z,1015.3
2017-06-17T04:56:02.624Z,1015.25
2017-06-17T04:56:43.566Z,1015.25
2017-06-17T04:57:24.465Z,1015.25
2017-06-17T04:58:05.366Z,1015.25
2017-06-17T04:59:38.598Z,1015.22
2017-06-17T05:00:19.558Z,1015.19
2017-06-17T05:01:00.440Z,1015.29
2017-06-17T05:01:41.322Z,1015.26
2017-06-17T05:02:22.208Z,1015.29
2017-06-17T05:03:03.099Z,1015.26
2017-06-17T05:03:43.979Z,1015.29
2017-06-17T05:04:24.856Z,1015.21
2017-06-17T05:05:05.743Z,1015.17
2017-06-17T05:05:46.657Z,1015.22
2017-06-17T05:06:27.522Z,1015.29
2017-06-17T05:07:08.405Z,1015.22
2017-06-17T05:07:49.300Z,1015.19
2017-06-17T05:08:30.187Z,1015.25
2017-06-17T05:09:11.091Z,1015.27
2017-06-17T05:09:51.975Z,1015.28
2017-06-17T05:10:32.856Z,1015.33
2017-06-17T05:11:13.743Z,1015.3
2017-06-17T05:11:54.629Z,1015.37
2017-06-17T05:12:35.529Z,1015.24
2017-06-17T05:13:16.400Z,1015.2
2017-06-17T05:13:57.282Z,1015.3
2017-06-17T05:14:38.182Z,1015.16
2017-06-17T05:15:19.187Z,1015.26
2017-06-17T05:16:00.237Z,1015.25
2017-06-17T05:16:41.115Z,1015.19
2017-06-17T05:17:21.987Z,1015.25
2017-06-17T05:18:02.911Z,1015.26
2017-06-17T05:18:43.785Z,1015.3
2017-06-17T05:19:24.769Z,1015.27
2017-06-17T05:20:05.673Z,1015.29
2017-06-17T05:20:46.581Z,1015.23
2017-06-17T05:21:27.410Z,1015.28
2017-06-17T05:22:08.295Z,1015.26
2017-06-17T05:22:49.188Z,1015.11
2017-06-17T05:23:30.085Z,1015.34
2017-06-17T05:24:10.969Z,1015.26
2017-06-17T05:24:51.859Z,1015.23
2017-06-17T05:25:32.758Z,1015.31
2017-06-17T05:27:31.532Z,1015.3
2017-06-17T05:28:12.403Z,1015.28
2017-06-17T05:28:53.301Z,1015.27
2017-06-17T05:29:34.201Z,1015.32
2017-06-17T05:30:15.078Z,1015.31
2017-06-17T05:30:55.963Z,1015.29
2017-06-17T05:31:37.494Z,1015.31
2017-06-17T05:32:18.393Z,1015.34
2017-06-17T05:32:59.284Z,1015.35
2017-06-17T05:33:40.192Z,1015.3
2017-06-17T05:34:21.095Z,1015.32
2017-06-17T05:35:01.977Z,1015.29
2017-06-17T05:35:42.873Z,1015.33
2017-06-17T05:36:23.742Z,1015.36
2017-06-17T05:37:04.654Z,1015.34
2017-06-17T05:37:45.544Z,1015.33
2017-06-17T05:38:26.436Z,1015.3
2017-06-17T05:39:07.341Z,1015.36
2017-06-17T05:39:48.221Z,1015.37
2017-06-17T05:40:29.093Z,1015.39
2017-06-17T05:41:09.968Z,1015.39
2017-06-17T05:41:50.886Z,1015.43
2017-06-17T05:42:31.772Z,1015.42
2017-06-17T05:43:12.656Z,1015.44
2017-06-17T05:43:53.561Z,1015.44
2017-06-17T05:44:34.441Z,1015.52
2017-06-17T05:45:15.311Z,1015.54
2017-06-17T05:45:56.222Z,1015.32
2017-06-17T05:46:37.115Z,1015.5
2017-06-17T05:47:17.975Z,1015.46
2017-06-17T05:49:26.925Z,1015.49
2017-06-17T05:50:07.829Z,1015.53
2017-06-17T05:50:48.720Z,1015.5
2017-06-17T05:51:29.589Z,1015.53
2017-06-17T05:52:10.458Z,1015.57
2017-06-17T05:52:51.369Z,1015.56
2017-06-17T05:53:32.305Z,1015.61
2017-06-17T05:54:13.218Z,1015.6
2017-06-17T05:54:54.070Z,1015.58
2017-06-17T05:55:34.937Z,1015.62
2017-06-17T05:56:15.804Z,1015.6
2017-06-17T05:56:56.697Z,1015.52
2017-06-17T05:57:37.605Z,1015.51
2017-06-17T05:58:18.463Z,1015.51
2017-06-17T05:58:59.341Z,1015.51
2017-06-17T05:59:40.228Z,1015.49
2017-06-17T06:00:21.150Z,1015.47
2017-06-17T06:01:02.000Z,1015.56
2017-06-17T06:01:42.890Z,1015.54
2017-06-17T06:02:23.780Z,1015.59
2017-06-17T06:03:04.678Z,1015.6
2017-06-17T06:03:45.543Z,1015.51
2017-06-17T06:04:26.440Z,1015.56
2017-06-17T06:05:07.327Z,1015.65
2017-06-17T06:05:48.204Z,1015.52
2017-06-17T06:06:29.097Z,1015.61
2017-06-17T06:07:10.006Z,1015.55
2017-06-17T06:07:50.914Z,1015.59
2017-06-17T06:08:31.856Z,1015.51
2017-06-17T06:09:12.698Z,1015.55
2017-06-17T06:09:53.570Z,1015.55
2017-06-17T06:10:34.468Z,1015.55
2017-06-17T06:11:15.359Z,1015.56
2017-06-17T06:11:56.238Z,1015.58
2017-06-17T06:12:37.124Z,1015.6
2017-06-17T06:13:18.025Z,1015.55
2017-06-17T06:13:58.910Z,1015.53
2017-06-17T06:14:39.782Z,1015.63
2017-06-17T06:15:20.692Z,1015.59
2017-06-17T06:16:01.582Z,1015.57
2017-06-17T06:16:42.448Z,1015.57
2017-06-17T06:17:23.351Z,1015.59
2017-06-17T06:18:04.242Z,1015.58
2017-06-17T06:18:45.120Z,1015.59
2017-06-17T06:19:26.008Z,1015.53
2017-06-17T06:20:06.906Z,1015.56
2017-06-17T06:20:47.794Z,1015.57
2017-06-17T06:21:28.661Z,1015.63
2017-06-17T06:22:09.513Z,1015.58
2017-06-17T06:22:50.401Z,1015.58
2017-06-17T06:23:31.291Z,1015.5
2017-06-17T06:24:12.183Z,1015.57
2017-06-17T06:24:53.077Z,1015.57
2017-06-17T06:25:33.971Z,1015.58
2017-06-17T06:26:14.854Z,1015.53
2017-06-17T06:26:55.729Z,1015.59
2017-06-17T06:27:36.601Z,1015.58
2017-06-17T06:28:17.511Z,1015.58
2017-06-17T06:28:58.390Z,1015.56
2017-06-17T06:29:39.324Z,1015.59
2017-06-17T06:30:20.191Z,1015.57
2017-06-17T06:31:01.078Z,1015.61
2017-06-17T06:31:41.965Z,1015.63
2017-06-17T06:32:22.862Z,1015.6
2017-06-17T06:33:03.755Z,1015.63
2017-06-17T06:33:44.651Z,1015.61
2017-06-17T06:34:25.559Z,1015.67
2017-06-17T06:35:06.421Z,1015.6
2017-06-17T06:35:47.320Z,1015.65
2017-06-17T06:36:28.287Z,1015.65
2017-06-17T06:37:09.110Z,1015.61
2017-06-17T06:37:49.965Z,1015.65
2017-06-17T06:38:30.839Z,1015.67
2017-06-17T06:39:11.746Z,1015.72
2017-06-17T06:39:52.634Z,1015.66
2017-06-17T06:40:33.627Z,1015.62
2017-06-17T06:41:14.416Z,1015.59
2017-06-17T06:41:55.291Z,1015.64
2017-06-17T06:42:36.175Z,1015.66
2017-06-17T06:43:17.048Z,1015.65
2017-06-17T06:43:57.963Z,1015.61
2017-06-17T06:44:38.855Z,1015.64
2017-06-17T06:45:19.708Z,1015.67
2017-06-17T06:46:00.629Z,1015.65
2017-06-17T06:46:41.530Z,1015.67
2017-06-17T06:47:22.404Z,1015.67
2017-06-17T06:48:03.292Z,1015.64
2017-06-17T06:48:44.185Z,1015.71
2017-06-17T06:49:25.066Z,1015.7
2017-06-17T06:50:06.030Z,1015.77
2017-06-17T06:50:46.950Z,1015.65
2017-06-17T06:51:27.844Z,1015.7
2017-06-17T06:52:08.716Z,1015.68
2017-06-17T06:52:49.616Z,1015.68
2017-06-17T06:53:30.500Z,1015.68
2017-06-17T06:54:11.381Z,1015.68
2017-06-17T06:54:52.269Z,1015.6
2017-06-17T06:55:33.161Z,1015.66
2017-06-17T06:56:14.066Z,1015.64
2017-06-17T06:56:55.032Z,1015.68
2017-06-17T06:57:35.919Z,1015.6
2017-06-17T06:58:16.808Z,1015.62
2017-06-17T06:58:57.704Z,1015.62
2017-06-17T06:59:38.597Z,1015.61
2017-06-17T07:00:19.489Z,1015.63
2017-06-17T07:01:00.370Z,1015.55
2017-06-17T07:01:41.275Z,1015.62
2017-06-17T07:02:22.154Z,1015.58
2017-06-17T07:03:03.044Z,1015.62
2017-06-17T07:03:43.959Z,1015.58
2017-06-17T07:04:24.863Z,1015.61
2017-06-17T07:05:05.824Z,1015.6
2017-06-17T07:05:46.685Z,1015.6
2017-06-17T07:06:27.591Z,1015.66
2017-06-17T07:07:08.473Z,1015.65
2017-06-17T07:07:49.360Z,1015.68
2017-06-17T07:08:30.277Z,1015.65
2017-06-17T07:09:11.164Z,1015.73
2017-06-17T07:09:52.065Z,1015.7
2017-06-17T07:10:32.947Z,1015.69
2017-06-17T07:11:13.834Z,1015.63
2017-06-17T07:11:54.714Z,1015.78
2017-06-17T07:12:35.611Z,1015.56
2017-06-17T07:13:16.502Z,1015.69
2017-06-17T07:13:57.393Z,1015.73
2017-06-17T07:14:38.304Z,1015.73
2017-06-17T07:15:19.230Z,1015.62
2017-06-17T07:16:00.105Z,1015.7
2017-06-17T07:16:40.996Z,1015.65
2017-06-17T07:17:21.884Z,1015.69
2017-06-17T07:18:02.776Z,1015.67
2017-06-17T07:18:43.672Z,1015.66
2017-06-17T07:19:24.552Z,1015.69
2017-06-17T07:20:05.449Z,1015.68
2017-06-17T07:20:46.384Z,1015.61
2017-06-17T07:21:27.255Z,1015.69
2017-06-17T07:22:08.146Z,1015.7
2017-06-17T07:22:49.034Z,1015.77
2017-06-17T07:23:29.992Z,1015.74
2017-06-17T07:24:10.896Z,1015.78
2017-06-17T07:24:51.800Z,1015.85
2017-06-17T07:25:32.666Z,1015.8
2017-06-17T07:26:13.562Z,1015.78
2017-06-17T07:26:54.443Z,1015.86
2017-06-17T07:27:35.328Z,1015.82
2017-06-17T07:28:16.213Z,1015.85
2017-06-17T07:28:57.117Z,1015.89
2017-06-17T07:29:38.013Z,1015.88
2017-06-17T07:30:18.939Z,1015.95
2017-06-17T07:30:59.844Z,1015.93
2017-06-17T07:31:40.723Z,1015.9
2017-06-17T07:32:21.625Z,1015.91
2017-06-17T07:33:02.518Z,1016.01
2017-06-17T07:33:43.427Z,1016.01
2017-06-17T07:34:24.304Z,1016.1
2017-06-17T07:35:05.201Z,1015.99
2017-06-17T07:35:46.090Z,1015.85
2017-06-17T07:36:26.988Z,1015.89
2017-06-17T07:37:07.903Z,1015.92
2017-06-17T07:37:48.802Z,1015.91
2017-06-17T07:38:29.692Z,1015.91
2017-06-17T07:39:10.585Z,1015.93
2017-06-17T07:39:51.482Z,1016.05
2017-06-17T07:40:32.374Z,1015.92
2017-06-17T07:41:13.273Z,1015.96
2017-06-17T07:41:54.188Z,1015.95
2017-06-17T07:42:35.053Z,1015.97
2017-06-17T07:43:15.964Z,1016.02
2017-06-17T07:43:56.856Z,1015.96
2017-06-17T07:44:37.783Z,1015.97
2017-06-17T07:45:18.679Z,1015.97
2017-06-17T07:45:59.545Z,1016.03
2017-06-17T07:46:40.452Z,1015.97
2017-06-17T07:47:21.349Z,1015.94
2017-06-17T07:48:02.246Z,1015.97
2017-06-17T07:48:43.135Z,1015.94
2017-06-17T07:49:24.030Z,1016
2017-06-17T07:50:04.975Z,1015.94
2017-06-17T07:50:45.873Z,1015.95
2017-06-17T07:51:26.777Z,1015.94
2017-06-17T07:52:07.734Z,1015.99
2017-06-17T07:52:48.631Z,1016.01
2017-06-17T07:53:29.550Z,1015.95
2017-06-17T07:54:10.445Z,1016.08
2017-06-17T07:54:51.348Z,1016.05
2017-06-17T07:55:32.235Z,1016.1
2017-06-17T07:56:13.121Z,1016.05
2017-06-17T07:57:51.630Z,1016.01
2017-06-17T07:58:32.536Z,1015.92
2017-06-17T07:59:13.442Z,1015.92
2017-06-17T07:59:54.329Z,1015.94
2017-06-17T08:00:35.242Z,1015.89
2017-06-17T08:01:16.146Z,1015.91
2017-06-17T08:01:57.053Z,1015.93
2017-06-17T08:02:37.963Z,1015.96
2017-06-17T08:03:18.858Z,1015.98
2017-06-17T08:03:59.794Z,1015.98
2017-06-17T08:04:40.690Z,1015.99
2017-06-17T08:05:21.618Z,1015.97
2017-06-17T08:06:02.508Z,1015.96
2017-06-17T08:06:43.426Z,1016
2017-06-17T08:07:24.314Z,1015.98
2017-06-17T08:08:05.214Z,1015.94
2017-06-17T08:08:46.119Z,1015.86
2017-06-17T08:09:27.000Z,1016
2017-06-17T08:10:07.894Z,1015.95
2017-06-17T08:10:48.796Z,1015.95
2017-06-17T08:11:29.705Z,1015.93
2017-06-17T08:12:10.612Z,1015.86
2017-06-17T08:12:51.522Z,1015.91
2017-06-17T08:13:32.422Z,1015.91
2017-06-17T08:14:13.317Z,1015.99
2017-06-17T08:14:54.222Z,1015.93
2017-06-17T08:15:35.113Z,1016.02
2017-06-17T08:16:16.017Z,1016.08
2017-06-17T08:16:56.904Z,1016.07
2017-06-17T08:17:37.809Z,1016.09
2017-06-17T08:18:18.717Z,1016
2017-06-17T08:18:59.630Z,1016.02
2017-06-17T08:19:40.542Z,1016.02
2017-06-17T08:20:21.439Z,1016.03
2017-06-17T08:21:02.336Z,1016.03
2017-06-17T08:21:43.211Z,1015.99
2017-06-17T08:22:24.107Z,1016.01